createdAt,value
2022-10-19T00:02:29.786Z,102864.94
2022-10-19T00:05:02.522Z,102859.78
2022-10-19T00:07:35.842Z,102860.25
2022-10-19T00:10:09.529Z,102859.78
2022-10-19T00:12:43.704Z,102854.28
2022-10-19T00:15:16.714Z,102855.25
2022-10-19T00:17:49.307Z,102851.09
2022-10-19T00:20:22.011Z,102855.13
2022-10-19T00:22:54.771Z,102855.78
2022-10-19T00:25:27.591Z,102839.97
2022-10-19T00:28:02.024Z,102845.19
2022-10-19T00:30:38.149Z,102850.16
2022-10-19T00:33:11.021Z,102853.91
2022-10-19T00:35:43.907Z,102860.53
2022-10-19T00:38:17.832Z,102858.47
2022-10-19T00:40:50.952Z,102863.47
2022-10-19T00:43:25.679Z,102854.28
2022-10-19T00:45:58.351Z,102851.72
2022-10-19T00:48:34.079Z,102857.97
2022-10-19T00:51:06.809Z,102860.72
2022-10-19T00:53:39.593Z,102859.31
2022-10-19T00:56:15.612Z,102852.72
2022-10-19T00:58:50.110Z,102858.06
2022-10-19T01:01:25.634Z,102854.16
2022-10-19T01:03:58.507Z,102856.63
2022-10-19T01:06:31.655Z,102858.41
2022-10-19T01:09:04.799Z,102854.84
2022-10-19T01:11:46.681Z,102846.28
2022-10-19T01:14:31.997Z,102838.66
2022-10-19T01:17:12.105Z,102839.00
2022-10-19T01:20:01.301Z,102843.22
2022-10-19T01:22:52.391Z,102837.41
2022-10-19T01:25:37.389Z,102829.19
2022-10-19T01:28:26.091Z,102830.13
2022-10-19T01:31:06.059Z,102824.00
2022-10-19T01:33:48.398Z,102834.22
2022-10-19T01:36:32.157Z,102827.72
2022-10-19T01:39:11.561Z,102829.31
2022-10-19T01:41:50.495Z,102824.34
2022-10-19T01:44:28.856Z,102817.56
2022-10-19T01:47:07.350Z,102817.91
2022-10-19T01:49:44.748Z,102819.50
2022-10-19T01:52:22.301Z,102816.13
2022-10-19T01:54:59.113Z,102821.97
2022-10-19T01:57:36.886Z,102817.09
2022-10-19T02:00:14.564Z,102825.69
2022-10-19T02:02:54.132Z,102823.91
2022-10-19T02:05:31.684Z,102816.13
2022-10-19T02:08:09.486Z,102823.44
2022-10-19T02:10:45.822Z,102810.34
2022-10-19T02:13:20.358Z,102803.41
2022-10-19T02:15:56.133Z,102800.47
2022-10-19T02:18:34.040Z,102795.47
2022-10-19T02:21:07.771Z,102799.50
2022-10-19T02:23:40.597Z,102790.50
2022-10-19T02:26:13.603Z,102790.50
2022-10-19T02:28:46.843Z,102792.41
2022-10-19T02:31:19.620Z,102795.16
2022-10-19T02:33:54.406Z,102808.28
2022-10-19T02:36:27.401Z,102817.66
2022-10-19T02:39:00.049Z,102811.50
2022-10-19T02:41:37.750Z,102810.91
2022-10-19T02:44:19.076Z,102794.72
2022-10-19T02:46:56.245Z,102787.97
2022-10-19T02:49:31.773Z,102788.75
2022-10-19T02:52:06.787Z,102785.03
2022-10-19T02:54:40.995Z,102786.19
2022-10-19T02:57:18.006Z,102781.19
2022-10-19T02:59:51.709Z,102780.38
2022-10-19T03:02:24.607Z,102775.38
2022-10-19T03:04:58.819Z,102771.34
2022-10-19T03:07:31.957Z,102773.75
2022-10-19T03:10:05.331Z,102771.34
2022-10-19T03:12:38.092Z,102770.88
2022-10-19T03:15:15.711Z,102758.13
2022-10-19T03:17:48.520Z,102764.91
2022-10-19T03:20:22.687Z,102764.91
2022-10-19T03:22:55.358Z,102766.03
2022-10-19T03:25:28.183Z,102764.75
2022-10-19T03:28:01.186Z,102754.59
2022-10-19T03:30:33.768Z,102755.22
2022-10-19T03:33:06.472Z,102753.78
2022-10-19T03:35:40.696Z,102757.34
2022-10-19T03:38:13.385Z,102753.63
2022-10-19T03:40:46.465Z,102757.03
2022-10-19T03:43:19.050Z,102756.84
2022-10-19T03:45:51.791Z,102755.09
2022-10-19T03:48:24.710Z,102747.22
2022-10-19T03:51:03.343Z,102755.25
2022-10-19T03:53:36.661Z,102743.31
2022-10-19T03:56:12.567Z,102743.63
2022-10-19T03:58:46.478Z,102743.31
2022-10-19T04:01:22.022Z,102749.94
2022-10-19T04:03:55.102Z,102744.13
2022-10-19T04:06:29.900Z,102747.50
2022-10-19T04:09:03.459Z,102737.03
2022-10-19T04:11:37.054Z,102738.63
2022-10-19T04:16:42.939Z,102741.53
2022-10-19T04:19:16.235Z,102738.47
2022-10-19T04:21:50.864Z,102739.28
2022-10-19T04:24:24.027Z,102748.00
2022-10-19T04:26:57.758Z,102754.31
2022-10-19T04:29:30.924Z,102760.75
2022-10-19T04:32:03.739Z,102764.63
2022-10-19T04:34:39.267Z,102759.28
2022-10-19T04:37:14.353Z,102746.09
2022-10-19T04:39:47.167Z,102750.25
2022-10-19T04:42:20.330Z,102744.94
2022-10-19T04:44:53.174Z,102764.78
2022-10-19T04:47:25.971Z,102769.66
2022-10-19T04:49:58.652Z,102772.09
2022-10-19T04:52:35.224Z,102769.00
2022-10-19T04:55:08.592Z,102764.00
2022-10-19T04:57:41.496Z,102762.06
2022-10-19T05:00:15.797Z,102750.44
2022-10-19T05:02:48.558Z,102748.34
2022-10-19T05:05:21.279Z,102750.28
2022-10-19T05:07:55.453Z,102755.75
2022-10-19T05:10:28.420Z,102756.09
2022-10-19T05:13:02.329Z,102752.88
2022-10-19T05:15:35.128Z,102747.69
2022-10-19T05:18:11.423Z,102752.38
2022-10-19T05:20:44.454Z,102749.63
2022-10-19T05:23:19.052Z,102753.50
2022-10-19T05:26:00.752Z,102745.59
2022-10-19T05:28:34.463Z,102743.03
2022-10-19T05:31:09.755Z,102738.84
2022-10-19T05:33:43.612Z,102739.31
2022-10-19T05:36:19.488Z,102735.44
2022-10-19T05:38:54.993Z,102730.59
2022-10-19T05:41:28.262Z,102735.91
2022-10-19T05:44:03.280Z,102735.75
2022-10-19T05:46:36.159Z,102732.84
2022-10-19T05:49:09.530Z,102729.63
2022-10-19T05:51:43.051Z,102720.13
2022-10-19T05:54:17.728Z,102719.31
2022-10-19T05:56:50.949Z,102712.22
2022-10-19T05:59:24.549Z,102707.84
2022-10-19T06:01:57.394Z,102706.72
2022-10-19T06:04:30.397Z,102706.88
2022-10-19T06:07:03.439Z,102706.53
2022-10-19T06:09:37.646Z,102705.09
2022-10-19T06:12:10.929Z,102698.19
2022-10-19T06:14:44.299Z,102697.88
2022-10-19T06:17:17.254Z,102697.88
2022-10-19T06:19:50.223Z,102700.75
2022-10-19T06:22:23.194Z,102708.03
2022-10-19T06:24:57.478Z,102713.00
2022-10-19T06:27:33.100Z,102716.25
2022-10-19T06:30:07.918Z,102714.44
2022-10-19T06:32:40.982Z,102726.56
2022-10-19T06:35:17.197Z,102722.03
2022-10-19T06:37:50.170Z,102722.34
2022-10-19T06:40:24.682Z,102711.38
2022-10-19T06:42:58.607Z,102715.44
2022-10-19T06:46:00.978Z,102712.19
2022-10-19T06:48:34.022Z,102722.19
2022-10-19T06:51:35.794Z,102714.78
2022-10-19T06:54:48.017Z,102707.22
2022-10-19T06:57:27.379Z,102702.03
2022-10-19T07:00:00.614Z,102697.84
2022-10-19T07:02:37.139Z,102703.63
2022-10-19T07:05:13.658Z,102702.81
2022-10-19T07:07:48.970Z,102703.81
2022-10-19T07:10:24.781Z,102708.31
2022-10-19T07:12:59.287Z,102703.00
2022-10-19T07:15:33.401Z,102705.91
2022-10-19T07:18:06.602Z,102713.63
2022-10-19T07:20:40.818Z,102713.00
2022-10-19T07:23:13.901Z,102705.41
2022-10-19T07:25:52.920Z,102715.44
2022-10-19T07:28:27.672Z,102709.31
2022-10-19T07:31:06.355Z,102710.78
2022-10-19T07:33:39.677Z,102706.72
2022-10-19T07:36:14.016Z,102704.47
2022-10-19T07:38:47.030Z,102700.75
2022-10-19T07:41:20.947Z,102698.31
2022-10-19T07:43:57.860Z,102689.94
2022-10-19T07:46:33.509Z,102689.13
2022-10-19T07:49:11.188Z,102681.03
2022-10-19T07:51:44.093Z,102679.09
2022-10-19T07:54:18.195Z,102672.16
2022-10-19T07:56:55.782Z,102666.97
2022-10-19T08:00:07.943Z,102666.31
2022-10-19T08:03:28.075Z,102664.06
2022-10-19T08:05:43.588Z,102660.34
2022-10-19T08:08:16.598Z,102651.25
2022-10-19T08:10:49.486Z,102647.38
2022-10-19T08:13:22.655Z,102648.03
2022-10-19T08:15:57.109Z,102648.78
2022-10-19T08:18:30.235Z,102643.59
2022-10-19T08:21:03.454Z,102645.38
2022-10-19T08:23:36.484Z,102656.16
2022-10-19T08:26:10.123Z,102660.94
2022-10-19T08:28:43.174Z,102658.66
2022-10-19T08:31:18.653Z,102670.94
2022-10-19T08:33:54.325Z,102666.59
2022-10-19T08:39:29.123Z,102664.41
2022-10-19T08:42:05.613Z,102665.81
2022-10-19T08:44:59.879Z,102662.53
2022-10-19T08:47:48.675Z,102657.47
2022-10-19T08:50:24.924Z,102661.63
2022-10-19T08:53:03.121Z,102653.72
2022-10-19T08:55:55.186Z,102650.06
2022-10-19T08:58:40.176Z,102661.19
2022-10-19T09:01:24.245Z,102664.63
2022-10-19T09:04:03.884Z,102666.88
2022-10-19T09:06:48.617Z,102666.63
2022-10-19T09:09:22.211Z,102679.47
2022-10-19T09:12:02.084Z,102670.16
2022-10-19T09:14:39.840Z,102663.50
2022-10-19T09:17:17.041Z,102661.50
2022-10-19T09:19:51.816Z,102652.34
2022-10-19T09:22:33.549Z,102658.81
2022-10-19T09:25:15.738Z,102645.31
2022-10-19T09:28:03.227Z,102640.22
2022-10-19T09:30:39.068Z,102634.94
2022-10-19T09:33:24.635Z,102632.13
2022-10-19T09:36:01.720Z,102630.88
2022-10-19T09:38:34.669Z,102611.47
2022-10-19T09:41:17.696Z,102615.50
2022-10-19T09:43:55.597Z,102607.94
2022-10-19T09:46:53.897Z,102604.25
2022-10-19T09:49:43.263Z,102600.97
2022-10-19T09:52:35.806Z,102593.50
2022-10-19T09:55:24.804Z,102589.22
2022-10-19T10:01:43.829Z,102577.13
2022-10-19T10:04:23.535Z,102581.97
2022-10-19T10:07:04.981Z,102575.25
2022-10-19T10:09:44.518Z,102565.81
2022-10-19T10:13:13.423Z,102563.88
2022-10-19T10:16:01.234Z,102563.88
2022-10-19T10:19:07.235Z,102551.31
2022-10-19T10:22:06.287Z,102550.59
2022-10-19T10:24:51.944Z,102544.84
2022-10-19T10:27:34.540Z,102538.09
2022-10-19T10:30:11.495Z,102525.75
2022-10-19T10:32:50.383Z,102536.66
2022-10-19T10:35:27.316Z,102538.81
2022-10-19T10:38:15.957Z,102544.50
2022-10-19T10:40:55.616Z,102543.41
2022-10-19T10:43:32.314Z,102534.19
2022-10-19T10:46:08.765Z,102525.72
2022-10-19T10:48:46.444Z,102524.25
2022-10-19T10:51:30.227Z,102537.25
2022-10-19T10:54:21.321Z,102540.19
2022-10-19T10:57:14.164Z,102537.41
2022-10-19T11:00:03.842Z,102533.53
2022-10-19T11:02:48.153Z,102546.66
2022-10-19T11:05:27.592Z,102531.09
2022-10-19T11:08:08.814Z,102522.72
2022-10-19T11:10:48.730Z,102513.88
2022-10-19T11:13:33.768Z,102510.44
2022-10-19T11:16:16.104Z,102502.38
2022-10-19T11:18:55.301Z,102497.38
2022-10-19T11:21:35.224Z,102494.25
2022-10-19T11:24:20.390Z,102487.50
2022-10-19T11:27:07.100Z,102479.44
2022-10-19T11:29:56.076Z,102488.81
2022-10-19T11:32:42.397Z,102483.19
2022-10-19T11:35:31.500Z,102478.53
2022-10-19T11:38:22.698Z,102462.47
2022-10-19T11:41:23.369Z,102463.84
2022-10-19T11:44:24.333Z,102455.25
2022-10-19T11:47:16.237Z,102454.72
2022-10-19T11:50:03.542Z,102442.88
2022-10-19T11:52:48.828Z,102440.31
2022-10-19T11:55:35.485Z,102428.91
2022-10-19T11:58:45.253Z,102424.28
2022-10-19T12:01:42.636Z,102429.84
2022-10-19T12:04:38.266Z,102419.94
2022-10-19T12:07:27.684Z,102424.09
2022-10-19T12:10:11.960Z,102410.66
2022-10-19T12:12:48.773Z,102411.59
2022-10-19T12:15:28.268Z,102397.59
2022-10-19T12:18:11.213Z,102398.78
2022-10-19T12:20:50.199Z,102390.09
2022-10-19T12:23:27.956Z,102381.63
2022-10-19T12:26:04.005Z,102375.00
2022-10-19T12:28:40.086Z,102369.16
2022-10-19T12:31:13.755Z,102374.94
2022-10-19T12:33:53.057Z,102366.53
2022-10-19T12:36:38.072Z,102371.31
2022-10-19T12:39:18.789Z,102359.00
2022-10-19T12:42:14.865Z,102349.91
2022-10-19T12:45:31.451Z,102346.84
2022-10-19T12:48:22.266Z,102353.91
2022-10-19T12:51:21.883Z,102344.84
2022-10-19T12:54:17.427Z,102343.25
2022-10-19T12:56:53.658Z,102349.91
2022-10-19T12:59:32.588Z,102348.53
2022-10-19T13:02:24.131Z,102337.28
2022-10-19T13:05:01.594Z,102328.47
2022-10-19T13:07:37.289Z,102324.59
2022-10-19T13:10:22.324Z,102320.59
2022-10-19T13:12:55.853Z,102319.63
2022-10-19T13:16:02.574Z,102312.59
2022-10-19T13:19:18.424Z,102311.25
2022-10-19T13:22:08.993Z,102299.25
2022-10-19T13:24:55.938Z,102302.00
2022-10-19T13:27:40.427Z,102301.78
2022-10-19T13:30:46.748Z,102289.16
2022-10-19T13:33:45.919Z,102291.47
2022-10-19T13:36:20.235Z,102283.53
2022-10-19T13:39:13.980Z,102289.41
2022-10-19T13:41:52.775Z,102283.44
2022-10-19T13:44:35.442Z,102276.03
2022-10-19T13:47:35.737Z,102276.19
2022-10-19T13:50:24.307Z,102280.03
2022-10-19T13:53:28.799Z,102281.41
2022-10-19T13:56:32.552Z,102271.03
2022-10-19T13:59:15.248Z,102272.25
2022-10-19T14:02:19.046Z,102265.88
2022-10-19T14:04:58.205Z,102261.56
2022-10-19T14:07:40.300Z,102251.84
2022-10-19T14:10:18.457Z,102253.72
2022-10-19T14:12:53.614Z,102245.28
2022-10-19T14:15:29.572Z,102240.66
2022-10-19T14:18:05.951Z,102234.91
2022-10-19T14:20:40.284Z,102233.97
2022-10-19T14:23:21.383Z,102232.25
2022-10-19T14:25:56.718Z,102231.09
2022-10-19T14:28:30.377Z,102223.47
2022-10-19T14:31:05.941Z,102209.63
2022-10-19T14:33:42.828Z,102199.28
2022-10-19T14:36:19.063Z,102198.44
2022-10-19T14:38:55.739Z,102208.53
2022-10-19T14:41:49.407Z,102204.59
2022-10-19T14:44:40.092Z,102210.53
2022-10-19T14:47:23.880Z,102208.81
2022-10-19T14:49:58.548Z,102204.78
2022-10-19T14:52:39.533Z,102206.66
2022-10-19T14:55:21.183Z,102197.28
2022-10-19T14:57:55.199Z,102205.50
2022-10-19T15:00:30.816Z,102196.00
2022-10-19T15:03:07.859Z,102199.53
2022-10-19T15:05:49.539Z,102202.59
2022-10-19T15:08:31.435Z,102194.28
2022-10-19T15:11:06.140Z,102187.56
2022-10-19T15:13:43.455Z,102185.88
2022-10-19T15:16:50.674Z,102168.13
2022-10-19T15:19:29.717Z,102159.72
2022-10-19T15:22:18.222Z,102166.44
2022-10-19T15:25:20.821Z,102153.38
2022-10-19T15:27:54.458Z,102137.97
2022-10-19T15:30:30.461Z,102128.91
2022-10-19T15:33:21.355Z,102133.66
2022-10-19T15:36:04.637Z,102131.16
2022-10-19T15:38:39.230Z,102125.94
2022-10-19T15:41:22.559Z,102123.72
2022-10-19T15:43:56.857Z,102116.94
2022-10-19T15:46:34.918Z,102117.28
2022-10-19T15:49:51.446Z,102107.41
2022-10-19T15:52:26.227Z,102105.78
2022-10-19T15:55:01.982Z,102099.50
2022-10-19T15:57:36.742Z,102100.25
2022-10-19T16:00:13.588Z,102096.31
2022-10-19T16:02:46.514Z,102084.41
2022-10-19T16:05:19.362Z,102084.34
2022-10-19T16:07:52.232Z,102076.09
2022-10-19T16:10:28.899Z,102075.28
2022-10-19T16:13:01.885Z,102074.41
2022-10-19T16:15:34.715Z,102068.59
2022-10-19T16:18:08.253Z,102059.81
2022-10-19T16:20:42.807Z,102058.13
2022-10-19T16:23:16.121Z,102049.44
2022-10-19T16:25:50.460Z,102036.81
2022-10-19T16:28:23.215Z,102035.88
2022-10-19T16:30:57.063Z,102042.19
2022-10-19T16:33:29.904Z,102040.19
2022-10-19T16:36:05.675Z,102046.81
2022-10-19T16:38:38.554Z,102045.94
2022-10-19T16:41:13.377Z,102034.84
2022-10-19T16:43:48.181Z,102035.91
2022-10-19T16:46:22.822Z,102029.31
2022-10-19T16:48:55.692Z,102031.66
2022-10-19T16:51:36.214Z,102030.75
2022-10-19T16:54:11.740Z,102029.81
2022-10-19T16:56:48.641Z,102026.41
2022-10-19T16:59:21.708Z,102017.09
2022-10-19T17:01:57.520Z,102015.41
2022-10-19T17:04:30.524Z,102008.31
2022-10-19T17:07:03.363Z,102016.88
2022-10-19T17:09:41.969Z,102022.53
2022-10-19T17:12:17.642Z,102029.53
2022-10-19T17:14:51.333Z,102027.88
2022-10-19T17:17:26.779Z,102026.84
2022-10-19T17:19:59.734Z,102029.47
2022-10-19T17:22:33.307Z,102025.63
2022-10-19T17:25:07.351Z,102026.06
2022-10-19T17:27:41.627Z,102024.47
2022-10-19T17:30:14.884Z,102018.09
2022-10-19T17:32:48.048Z,102018.00
2022-10-19T17:35:20.852Z,102021.69
2022-10-19T17:37:53.963Z,102019.56
2022-10-19T17:40:26.722Z,102031.66
2022-10-19T17:43:01.530Z,102035.22
2022-10-19T17:45:37.833Z,102034.84
2022-10-19T17:48:10.927Z,102035.38
2022-10-19T17:50:43.729Z,102039.13
2022-10-19T17:53:16.582Z,102029.66
2022-10-19T17:55:49.507Z,102015.72
2022-10-19T17:58:24.042Z,102013.59
2022-10-19T18:00:58.663Z,102002.00
2022-10-19T18:03:33.612Z,102002.63
2022-10-19T18:06:10.602Z,102002.00
2022-10-19T18:08:46.972Z,102005.41
2022-10-19T18:11:21.697Z,102010.44
2022-10-19T18:14:01.838Z,102007.22
2022-10-19T18:16:37.165Z,102006.03
2022-10-19T18:19:10.489Z,102010.44
2022-10-19T18:21:45.015Z,102004.25
2022-10-19T18:24:22.380Z,101992.72
2022-10-19T18:26:55.180Z,101987.16
2022-10-19T18:29:29.422Z,101988.66
2022-10-19T18:32:02.420Z,101988.22
2022-10-19T18:34:35.751Z,101988.22
2022-10-19T18:37:08.568Z,101974.94
2022-10-19T18:39:41.699Z,101969.66
2022-10-19T18:42:14.539Z,101956.59
2022-10-19T18:44:48.685Z,101949.34
2022-10-19T18:47:21.564Z,101942.81
2022-10-19T18:49:55.623Z,101949.34
2022-10-19T18:52:28.653Z,101940.28
2022-10-19T18:55:07.421Z,101937.91
2022-10-19T18:57:40.501Z,101936.31
2022-10-19T19:00:15.590Z,101922.97
2022-10-19T19:02:56.413Z,101920.31
2022-10-19T19:05:29.594Z,101917.13
2022-10-19T19:08:02.482Z,101908.63
2022-10-19T19:10:35.441Z,101920.25
2022-10-19T19:13:11.175Z,101915.53
2022-10-19T19:15:46.094Z,101912.22
2022-10-19T19:18:18.885Z,101896.19
2022-10-19T19:20:52.204Z,101896.69
2022-10-19T19:23:25.016Z,101897.84
2022-10-19T19:25:58.201Z,101887.44
2022-10-19T19:28:36.509Z,101886.53
2022-10-19T19:31:16.019Z,101875.53
2022-10-19T19:33:49.593Z,101881.56
2022-10-19T19:36:22.854Z,101891.31
2022-10-19T19:38:56.727Z,101902.78
2022-10-19T19:41:31.211Z,101902.63
2022-10-19T19:44:04.137Z,101899.16
2022-10-19T19:46:38.911Z,101893.56
2022-10-19T19:49:12.308Z,101880.59
2022-10-19T19:51:48.359Z,101879.81
2022-10-19T19:54:21.819Z,101867.91
2022-10-19T19:56:55.289Z,101873.50
2022-10-19T19:59:28.141Z,101870.66
2022-10-19T20:02:02.457Z,101864.47
2022-10-19T20:04:35.394Z,101868.72
2022-10-19T20:07:08.261Z,101865.09
2022-10-19T20:09:41.148Z,101859.28
2022-10-19T20:12:14.549Z,101851.19
2022-10-19T20:14:47.568Z,101848.13
2022-10-19T20:17:24.066Z,101843.63
2022-10-19T20:19:56.902Z,101844.88
2022-10-19T20:22:30.153Z,101840.19
2022-10-19T20:25:03.512Z,101829.06
2022-10-19T20:27:37.260Z,101829.28
2022-10-19T20:30:11.570Z,101829.28
2022-10-19T20:32:45.765Z,101824.31
2022-10-19T20:35:18.522Z,101815.41
2022-10-19T20:37:51.400Z,101808.22
2022-10-19T20:40:24.236Z,101813.94
2022-10-19T20:42:57.423Z,101809.44
2022-10-19T20:45:30.336Z,101805.75
2022-10-19T20:48:04.666Z,101805.75
2022-10-19T20:50:37.401Z,101804.47
2022-10-19T20:53:11.216Z,101804.38
2022-10-19T20:55:43.883Z,101808.94
2022-10-19T20:58:16.660Z,101803.06
2022-10-19T21:00:49.439Z,101787.34
2022-10-19T21:03:23.992Z,101794.09
2022-10-19T21:05:56.643Z,101793.22
2022-10-19T21:08:29.388Z,101802.25
2022-10-19T21:11:02.315Z,101804.22
2022-10-19T21:13:34.983Z,101791.78
2022-10-19T21:16:12.363Z,101787.28
2022-10-19T21:18:49.027Z,101791.63
2022-10-19T21:21:23.759Z,101775.03
2022-10-19T21:23:58.452Z,101773.16
2022-10-19T21:26:33.048Z,101771.41
2022-10-19T21:29:09.553Z,101768.72
2022-10-19T21:31:47.828Z,101765.56
2022-10-19T21:34:24.809Z,101753.84
2022-10-19T21:36:57.966Z,101751.88
2022-10-19T21:39:30.794Z,101753.69
2022-10-19T21:42:03.598Z,101755.13
2022-10-19T21:44:36.367Z,101751.38
2022-10-19T21:47:09.160Z,101741.66
2022-10-19T21:49:43.475Z,101743.41
2022-10-19T21:52:16.311Z,101732.34
2022-10-19T21:54:49.109Z,101722.13
2022-10-19T21:57:21.711Z,101726.88
2022-10-19T21:59:54.507Z,101717.41
2022-10-19T22:02:27.195Z,101718.06
2022-10-19T22:05:01.402Z,101719.66
2022-10-19T22:07:34.480Z,101721.88
2022-10-19T22:10:07.933Z,101725.00
2022-10-19T22:12:40.673Z,101720.28
2022-10-19T22:15:13.803Z,101715.44
2022-10-19T22:17:46.563Z,101711.41
2022-10-19T22:20:20.719Z,101704.59
2022-10-19T22:22:54.975Z,101706.91
2022-10-19T22:25:28.062Z,101713.84
2022-10-19T22:28:01.629Z,101711.25
2022-10-19T22:33:08.445Z,101692.72
2022-10-19T22:35:42.615Z,101691.22
2022-10-19T22:38:15.311Z,101676.94
2022-10-19T22:41:43.144Z,101669.84
2022-10-19T22:44:34.689Z,101659.59
2022-10-19T22:47:07.558Z,101663.13
2022-10-19T22:49:40.263Z,101663.13
2022-10-19T22:52:14.339Z,101651.19
2022-10-19T22:54:47.067Z,101655.69
2022-10-19T22:57:19.813Z,101655.81
2022-10-19T22:59:52.553Z,101655.09
2022-10-19T23:02:25.363Z,101649.66
2022-10-19T23:04:59.505Z,101647.34
2022-10-19T23:07:34.358Z,101644.44
2022-10-19T23:10:07.992Z,101644.53
2022-10-19T23:12:40.896Z,101644.59
2022-10-19T23:15:13.850Z,101640.09
2022-10-19T23:17:47.431Z,101630.28
2022-10-19T23:20:20.300Z,101631.50
2022-10-19T23:22:54.547Z,101632.50
2022-10-19T23:25:27.544Z,101634.53
2022-10-19T23:28:00.355Z,101642.06
2022-10-19T23:30:33.074Z,101639.59
2022-10-19T23:33:06.922Z,101628.59
2022-10-19T23:35:39.597Z,101616.94
2022-10-19T23:38:13.795Z,101612.97
2022-10-19T23:40:46.780Z,101612.25
2022-10-19T23:43:19.405Z,101605.91
2022-10-19T23:45:52.214Z,101591.00
2022-10-19T23:48:25.012Z,101595.75
2022-10-19T23:50:59.444Z,101593.38
2022-10-19T23:53:39.882Z,101589.31
2022-10-19T23:56:17.184Z,101584.41
2022-10-19T23:58:50.481Z,101591.09
